createdAt,value
2023-04-27T00:03:34.400Z,5.01
2023-04-27T00:08:36.851Z,5.03
2023-04-27T00:13:39.006Z,5.00
2023-04-27T00:18:41.498Z,5.15
2023-04-27T00:23:43.865Z,5.38
2023-04-27T00:28:47.021Z,5.59
2023-04-27T00:33:49.826Z,5.63
2023-04-27T00:38:52.085Z,5.85
2023-04-27T00:43:54.256Z,5.85
2023-04-27T00:48:57.143Z,5.62
2023-04-27T00:54:00.195Z,5.53
2023-04-27T00:59:02.456Z,5.32
2023-04-27T01:04:04.969Z,5.15
2023-04-27T01:09:07.888Z,5.29
2023-04-27T01:14:10.338Z,5.02
2023-04-27T01:19:12.821Z,4.79
2023-04-27T01:24:15.132Z,4.57
2023-04-27T01:29:17.238Z,4.57
2023-04-27T01:34:19.349Z,4.47
2023-04-27T01:39:21.583Z,4.54
2023-04-27T01:44:24.668Z,4.41
2023-04-27T01:49:27.251Z,4.35
2023-04-27T01:54:29.421Z,4.23
2023-04-27T01:59:31.611Z,4.31
2023-04-27T02:04:34.047Z,4.29
2023-04-27T02:09:36.271Z,4.04
2023-04-27T02:14:38.378Z,3.94
2023-04-27T02:19:40.524Z,4.12
2023-04-27T02:24:42.650Z,4.13
2023-04-27T02:29:44.743Z,3.79
2023-04-27T02:34:47.616Z,3.80
2023-04-27T02:39:49.783Z,3.90
2023-04-27T02:44:52.566Z,3.94
2023-04-27T02:49:54.701Z,3.75
2023-04-27T02:54:57.340Z,3.41
2023-04-27T02:59:59.524Z,3.53
2023-04-27T03:05:01.728Z,3.43
2023-04-27T03:10:04.544Z,3.29
2023-04-27T03:15:07.880Z,3.32
2023-04-27T03:20:10.748Z,3.58
2023-04-27T03:25:13.135Z,3.52
2023-04-27T03:30:15.468Z,3.36
2023-04-27T03:35:17.690Z,3.19
2023-04-27T03:40:19.932Z,3.26
2023-04-27T03:45:22.541Z,3.03
2023-04-27T03:50:25.056Z,3.10
2023-04-27T03:55:27.377Z,3.03
2023-04-27T04:00:29.531Z,3.07
2023-04-27T04:05:31.691Z,3.11
2023-04-27T04:10:33.848Z,3.11
2023-04-27T04:15:36.058Z,3.50
2023-04-27T04:20:38.276Z,3.39
2023-04-27T04:25:40.428Z,3.78
2023-04-27T04:30:43.466Z,3.86
2023-04-27T04:35:46.313Z,3.84
2023-04-27T04:40:48.622Z,3.91
2023-04-27T04:45:50.997Z,4.19
2023-04-27T04:50:53.696Z,4.12
2023-04-27T04:55:56.027Z,4.17
2023-04-27T05:00:58.124Z,4.49
2023-04-27T05:06:00.304Z,4.50
2023-04-27T05:11:02.511Z,4.43
2023-04-27T05:16:06.308Z,4.56
2023-04-27T05:21:16.365Z,5.00
2023-04-27T05:26:19.059Z,4.99
2023-04-27T05:31:21.580Z,5.10
2023-04-27T05:36:23.765Z,5.56
2023-04-27T05:41:26.198Z,5.72
2023-04-27T05:46:28.411Z,5.58
2023-04-27T05:51:32.097Z,5.77
2023-04-27T05:56:34.358Z,5.99
2023-04-27T06:01:36.924Z,6.69
2023-04-27T06:06:39.195Z,7.42
2023-04-27T06:11:41.380Z,8.39
2023-04-27T06:16:43.828Z,9.05
2023-04-27T06:21:46.471Z,9.47
2023-04-27T06:26:51.687Z,10.24
2023-04-27T06:31:53.902Z,10.30
2023-04-27T06:36:56.110Z,10.47
2023-04-27T06:41:58.562Z,10.73
2023-04-27T06:47:00.852Z,10.61
2023-04-27T06:52:03.541Z,10.36
2023-04-27T06:57:06.681Z,9.78
2023-04-27T07:02:09.189Z,9.62
2023-04-27T07:07:13.277Z,9.20
2023-04-27T07:12:15.436Z,9.01
2023-04-27T07:17:17.630Z,9.24
2023-04-27T07:22:20.163Z,9.45
2023-04-27T07:27:22.473Z,9.99
2023-04-27T07:32:25.449Z,9.94
2023-04-27T07:37:28.823Z,10.12
2023-04-27T07:42:31.306Z,12.07
2023-04-27T07:47:33.641Z,13.80
2023-04-27T07:52:36.109Z,16.08
2023-04-27T07:57:38.680Z,16.29
2023-04-27T08:02:40.989Z,17.04
2023-04-27T08:07:45.970Z,18.37
2023-04-27T08:12:48.211Z,18.99
2023-04-27T08:17:50.423Z,18.86
2023-04-27T08:22:52.730Z,18.11
2023-04-27T08:27:54.855Z,18.06
2023-04-27T08:32:57.000Z,20.52
2023-04-27T08:37:59.205Z,19.38
2023-04-27T08:43:01.488Z,18.04
2023-04-27T08:48:03.835Z,18.00
2023-04-27T08:53:17.663Z,16.89
2023-04-27T08:58:20.279Z,17.41
2023-04-27T09:03:24.207Z,16.68
2023-04-27T09:08:26.606Z,17.83
2023-04-27T09:13:36.682Z,16.50
2023-04-27T09:18:42.388Z,15.56
2023-04-27T09:23:46.538Z,17.43
2023-04-27T09:28:50.799Z,16.30
2023-04-27T09:33:56.497Z,15.15
2023-04-27T09:39:02.226Z,16.94
2023-04-27T09:44:04.685Z,21.35
2023-04-27T09:49:07.085Z,21.02
2023-04-27T09:54:13.794Z,23.30
2023-04-27T09:59:18.699Z,24.41
2023-04-27T10:04:58.199Z,22.67
2023-04-27T10:10:05.005Z,25.62
2023-04-27T10:15:14.474Z,26.44
2023-04-27T10:20:17.851Z,28.74
2023-04-27T10:25:30.365Z,28.82
2023-04-27T10:30:35.123Z,29.60
2023-04-27T10:35:53.505Z,25.30
2023-04-27T10:41:05.644Z,27.22
2023-04-27T10:46:13.399Z,27.11
2023-04-27T10:51:17.753Z,22.50
2023-04-27T10:56:20.155Z,24.96
2023-04-27T11:01:27.521Z,26.72
2023-04-27T11:06:30.629Z,23.68
2023-04-27T11:11:32.867Z,28.49
2023-04-27T11:16:35.249Z,29.85
2023-04-27T11:21:37.633Z,28.59
2023-04-27T11:26:39.785Z,28.76
2023-04-27T11:31:49.665Z,28.11
2023-04-27T11:37:18.088Z,28.37
2023-04-27T11:42:26.307Z,25.11
2023-04-27T11:47:30.347Z,24.50
2023-04-27T11:52:37.380Z,27.93
2023-04-27T11:57:39.590Z,30.97
2023-04-27T12:02:43.627Z,30.30
2023-04-27T12:07:46.242Z,29.68
2023-04-27T12:12:48.476Z,28.30
2023-04-27T12:17:51.031Z,31.21
2023-04-27T12:22:54.546Z,31.20
2023-04-27T12:27:56.902Z,28.14
2023-04-27T12:33:00.911Z,28.37
2023-04-27T12:38:03.538Z,26.75
2023-04-27T12:43:06.844Z,28.41
2023-04-27T12:48:09.015Z,28.36
2023-04-27T12:53:11.584Z,25.16
2023-04-27T12:58:13.772Z,28.48
2023-04-27T13:03:16.287Z,26.47
2023-04-27T13:08:18.506Z,26.82
2023-04-27T13:13:20.718Z,25.71
2023-04-27T13:18:22.879Z,21.98
2023-04-27T13:23:26.622Z,26.05
2023-04-27T13:28:28.832Z,24.36
2023-04-27T13:33:33.588Z,27.51
2023-04-27T13:38:36.185Z,26.49
2023-04-27T13:43:38.400Z,22.15
2023-04-27T13:48:40.893Z,22.51
2023-04-27T13:53:43.072Z,26.12
2023-04-27T13:58:45.211Z,27.50
2023-04-27T14:03:47.650Z,27.87
2023-04-27T14:08:50.000Z,27.71
2023-04-27T14:13:52.216Z,30.16
2023-04-27T14:18:54.390Z,28.50
2023-04-27T14:23:56.502Z,27.35
2023-04-27T14:28:59.027Z,26.49
2023-04-27T14:34:01.193Z,26.90
2023-04-27T14:39:04.816Z,25.07
2023-04-27T14:44:08.419Z,24.32
2023-04-27T14:49:10.788Z,23.52
2023-04-27T14:54:13.431Z,22.95
2023-04-27T14:59:16.073Z,23.60
2023-04-27T15:04:18.786Z,22.18
2023-04-27T15:09:21.065Z,22.61
2023-04-27T15:14:23.269Z,23.45
2023-04-27T15:19:26.113Z,22.30
2023-04-27T15:24:28.272Z,21.50
2023-04-27T15:29:30.677Z,20.17
2023-04-27T15:34:33.499Z,22.94
2023-04-27T15:39:35.713Z,20.99
2023-04-27T15:44:37.865Z,19.32
2023-04-27T15:49:53.574Z,19.00
2023-04-27T15:54:58.790Z,18.17
2023-04-27T16:00:01.257Z,19.17
2023-04-27T16:05:05.622Z,19.01
2023-04-27T16:10:08.794Z,16.50
2023-04-27T16:15:11.805Z,16.83
2023-04-27T16:20:14.287Z,16.54
2023-04-27T16:25:16.882Z,16.14
2023-04-27T16:30:19.425Z,16.25
2023-04-27T16:35:21.730Z,15.67
2023-04-27T16:40:25.373Z,15.95
2023-04-27T16:45:28.605Z,15.96
2023-04-27T16:50:32.285Z,15.98
2023-04-27T16:55:35.282Z,15.57
2023-04-27T17:00:39.172Z,15.02
2023-04-27T17:05:41.493Z,14.76
2023-04-27T17:10:45.448Z,14.50
2023-04-27T17:15:47.752Z,13.87
2023-04-27T17:20:49.990Z,13.70
2023-04-27T17:25:52.149Z,13.23
2023-04-27T17:30:54.350Z,12.82
2023-04-27T17:35:56.483Z,12.49
2023-04-27T17:40:58.832Z,12.09
2023-04-27T17:46:01.018Z,11.86
2023-04-27T17:51:03.209Z,11.61
2023-04-27T17:56:05.686Z,11.46
2023-04-27T18:01:11.873Z,11.51
2023-04-27T18:06:14.317Z,11.02
2023-04-27T18:11:16.696Z,10.97
2023-04-27T18:16:18.874Z,10.83
2023-04-27T18:21:21.193Z,10.41
2023-04-27T18:26:23.447Z,10.26
2023-04-27T18:31:25.796Z,10.04
2023-04-27T18:36:28.631Z,9.83
2023-04-27T18:41:30.848Z,9.75
2023-04-27T18:46:33.824Z,9.63
2023-04-27T18:51:36.100Z,9.50
2023-04-27T18:56:38.338Z,9.28
2023-04-27T19:01:40.790Z,9.32
2023-04-27T19:06:43.013Z,9.33
2023-04-27T19:11:55.997Z,9.14
2023-04-27T19:17:05.445Z,9.10
2023-04-27T19:22:09.066Z,8.90
2023-04-27T19:27:11.877Z,8.89
2023-04-27T19:32:17.054Z,8.88
2023-04-27T19:37:19.272Z,8.69
2023-04-27T19:42:21.526Z,8.49
2023-04-27T19:47:23.980Z,8.49
2023-04-27T19:52:26.309Z,8.45
2023-04-27T19:57:28.568Z,8.38
2023-04-27T20:02:30.942Z,8.21
2023-04-27T20:07:33.255Z,8.10
2023-04-27T20:17:40.773Z,8.01
2023-04-27T20:22:42.991Z,7.92
2023-04-27T20:27:45.272Z,7.78
2023-04-27T20:32:47.509Z,7.57
2023-04-27T20:37:49.830Z,7.74
2023-04-27T20:42:52.020Z,7.54
2023-04-27T20:47:54.244Z,7.49
2023-04-27T20:52:56.405Z,7.43
2023-04-27T20:57:58.519Z,7.43
2023-04-27T21:03:01.110Z,7.25
2023-04-27T21:08:03.424Z,7.05
2023-04-27T21:13:05.966Z,7.10
2023-04-27T21:18:13.377Z,6.92
2023-04-27T21:23:21.418Z,6.96
2023-04-27T21:28:23.596Z,6.85
2023-04-27T21:33:25.919Z,6.76
2023-04-27T21:38:28.064Z,6.70
2023-04-27T21:43:30.338Z,6.67
2023-04-27T21:48:32.635Z,6.57
2023-04-27T21:53:34.818Z,6.46
2023-04-27T21:58:36.984Z,6.40
2023-04-27T22:03:39.444Z,6.19
2023-04-27T22:08:42.055Z,6.16
2023-04-27T22:13:44.567Z,6.05
2023-04-27T22:18:46.993Z,6.12
2023-04-27T22:23:49.174Z,6.07
2023-04-27T22:28:51.637Z,5.83
2023-04-27T22:33:53.830Z,5.84
2023-04-27T22:38:56.129Z,5.78
2023-04-27T22:43:58.227Z,5.73
2023-04-27T22:49:01.710Z,5.60
2023-04-27T22:54:04.121Z,5.57
2023-04-27T22:59:06.488Z,5.53
2023-04-27T23:04:09.439Z,5.60
2023-04-27T23:09:11.704Z,5.39
2023-04-27T23:14:14.442Z,5.27
2023-04-27T23:19:17.210Z,5.36
2023-04-27T23:24:19.483Z,5.30
2023-04-27T23:29:21.618Z,5.29
2023-04-27T23:34:23.766Z,5.15
2023-04-27T23:39:25.878Z,5.05
2023-04-27T23:44:28.062Z,5.01
2023-04-27T23:49:30.209Z,5.04
2023-04-27T23:54:32.613Z,5.05
2023-04-27T23:59:35.609Z,5.03
